Pagrindinis puslapis
METAR-TAF:

METAR-TAF

Oro uostai :

Cross City, Florida, Jungtinės Amerikos Valstijos

platuma: 29-33-00N, ilguma: 083-06-19W, Aukštis: 12 m

Dabartinis oras

Ataskaita buvo paskelbta 17 minutes, ne 17:15 UTC
Vėjas 4 kt iš Šiaurės
Temperatūra 22°C
Drėgmė 46%
Slėgis 1015 hPa
Matomumas: 16.1 km

METAR: KCTY 171715Z AUTO 35004KT 10SM 22/10 A2997 RMK AO2 T02200105

Laikas: 13:32 (17:32 UTC)


TAF: trūkstamas

Orai ataskaitas ir orų prognozės (METAR, TAF).

turimą stotys yra geltonos ir raudonos taškus žemėlapyje.

Perkelti pele per norėdami pamatyti stoties vardą.

Tada spustelėkite, norėdami matyti oro stebėjimo ir prognozės.

Norėdami pakeisti žemėlapį: spustelėkite ant žalios mygtukų su juodo kryžiaus žemyn,; žalią mygtuką su brūkšneliu, jei norite nutolinti; arba žalių rodyklių gretimoms žemėlapius.


METAR-TAF: